Adams, Nebraska
Current Conditions -  °F | °C
As of 2:15 PM on Sunday 25 Jan 2015 (Local Time) from KBIE Reporting Station
Overcast Overcast  
Wind Chill: 30°   Ceiling: 2100
Heat Index: 39°   Visibility: 10mi
Dew Point: 31°   Wind: 20mph
Humidity: 73%   Direction: 360°N
Pressure: 30.02"   Gusts: 25mph
Location:  40.46°N, 96.51°W
Report Text: KBIE 252015Z AUTO 36017G22KT 10SM OVC021 04/00 A3002 RMK AO2 T00401004
Loading
Personal Weather Stations






























Interactive Weather Map New forecast layout! Learn more

10-Day Weather Forecast

Advertisements
Track Severe Weather on mobile